sensor_id;sensor_type;location;lat;lon;timestamp;P1;durP1;ratioP1;P2;durP2;ratioP2
1106;SDS011;540;49.448;8.612;2023-04-15T00:02:13;6.55;;;3.45;;
1106;SDS011;540;49.448;8.612;2023-04-15T00:04:41;6.65;;;2.97;;
1106;SDS011;540;49.448;8.612;2023-04-15T00:07:09;6.88;;;3.40;;
1106;SDS011;540;49.448;8.612;2023-04-15T00:09:38;7.57;;;3.60;;
1106;SDS011;540;49.448;8.612;2023-04-15T00:12:07;9.73;;;3.75;;
1106;SDS011;540;49.448;8.612;2023-04-15T00:14:36;7.88;;;4.05;;
1106;SDS011;540;49.448;8.612;2023-04-15T00:17:03;6.05;;;4.05;;
1106;SDS011;540;49.448;8.612;2023-04-15T00:19:32;9.48;;;3.78;;
1106;SDS011;540;49.448;8.612;2023-04-15T00:22:00;9.27;;;3.63;;
1106;SDS011;540;49.448;8.612;2023-04-15T00:24:27;7.30;;;4.00;;
1106;SDS011;540;49.448;8.612;2023-04-15T00:26:57;10.38;;;3.38;;
1106;SDS011;540;49.448;8.612;2023-04-15T00:29:25;8.20;;;3.92;;
1106;SDS011;540;49.448;8.612;2023-04-15T00:31:53;8.18;;;4.40;;
1106;SDS011;540;49.448;8.612;2023-04-15T00:34:21;10.02;;;4.72;;
1106;SDS011;540;49.448;8.612;2023-04-15T00:36:49;7.43;;;4.32;;
1106;SDS011;540;49.448;8.612;2023-04-15T00:39:17;12.18;;;4.68;;
1106;SDS011;540;49.448;8.612;2023-04-15T00:41:45;11.10;;;4.35;;
1106;SDS011;540;49.448;8.612;2023-04-15T00:44:14;7.10;;;3.90;;
1106;SDS011;540;49.448;8.612;2023-04-15T00:46:43;8.88;;;4.13;;
1106;SDS011;540;49.448;8.612;2023-04-15T00:49:12;8.55;;;4.13;;
1106;SDS011;540;49.448;8.612;2023-04-15T00:51:40;10.13;;;3.70;;
1106;SDS011;540;49.448;8.612;2023-04-15T00:54:08;6.72;;;3.42;;
1106;SDS011;540;49.448;8.612;2023-04-15T00:56:37;9.25;;;2.95;;
1106;SDS011;540;49.448;8.612;2023-04-15T00:59:05;9.40;;;3.50;;
1106;SDS011;540;49.448;8.612;2023-04-15T01:01:36;8.30;;;3.55;;
1106;SDS011;540;49.448;8.612;2023-04-15T01:04:04;9.45;;;3.60;;
1106;SDS011;540;49.448;8.612;2023-04-15T01:06:33;8.85;;;3.42;;
1106;SDS011;540;49.448;8.612;2023-04-15T01:09:01;6.07;;;3.40;;
1106;SDS011;540;49.448;8.612;2023-04-15T01:11:29;7.18;;;3.53;;
1106;SDS011;540;49.448;8.612;2023-04-15T01:13:59;7.90;;;3.58;;
1106;SDS011;540;49.448;8.612;2023-04-15T01:16:27;7.68;;;3.53;;
1106;SDS011;540;49.448;8.612;2023-04-15T01:18:56;7.30;;;4.20;;
1106;SDS011;540;49.448;8.612;2023-04-15T01:21:24;7.53;;;4.50;;
1106;SDS011;540;49.448;8.612;2023-04-15T01:23:53;8.05;;;4.47;;
1106;SDS011;540;49.448;8.612;2023-04-15T01:26:24;7.63;;;4.25;;
1106;SDS011;540;49.448;8.612;2023-04-15T01:28:52;12.65;;;3.85;;
1106;SDS011;540;49.448;8.612;2023-04-15T01:31:21;10.30;;;3.55;;
1106;SDS011;540;49.448;8.612;2023-04-15T01:33:49;14.25;;;4.30;;
1106;SDS011;540;49.448;8.612;2023-04-15T01:36:17;7.38;;;3.65;;
1106;SDS011;540;49.448;8.612;2023-04-15T01:38:44;11.88;;;4.93;;
1106;SDS011;540;49.448;8.612;2023-04-15T01:41:13;6.90;;;3.25;;
1106;SDS011;540;49.448;8.612;2023-04-15T01:43:42;8.07;;;2.97;;
1106;SDS011;540;49.448;8.612;2023-04-15T01:46:10;6.72;;;2.97;;
1106;SDS011;540;49.448;8.612;2023-04-15T01:48:38;9.60;;;3.50;;
1106;SDS011;540;49.448;8.612;2023-04-15T01:51:06;11.90;;;4.03;;
1106;SDS011;540;49.448;8.612;2023-04-15T01:53:34;6.57;;;3.60;;
1106;SDS011;540;49.448;8.612;2023-04-15T01:56:02;7.93;;;3.90;;
1106;SDS011;540;49.448;8.612;2023-04-15T01:58:30;6.82;;;3.47;;
1106;SDS011;540;49.448;8.612;2023-04-15T02:00:59;9.50;;;3.30;;
1106;SDS011;540;49.448;8.612;2023-04-15T02:03:28;11.65;;;4.68;;
1106;SDS011;540;49.448;8.612;2023-04-15T02:05:56;6.97;;;3.58;;
1106;SDS011;540;49.448;8.612;2023-04-15T02:08:24;6.63;;;4.03;;
1106;SDS011;540;49.448;8.612;2023-04-15T02:10:52;7.30;;;3.92;;
1106;SDS011;540;49.448;8.612;2023-04-15T02:13:19;7.65;;;3.95;;
1106;SDS011;540;49.448;8.612;2023-04-15T02:15:47;8.57;;;4.43;;
1106;SDS011;540;49.448;8.612;2023-04-15T02:18:17;7.47;;;3.80;;
1106;SDS011;540;49.448;8.612;2023-04-15T02:20:44;8.85;;;4.10;;
1106;SDS011;540;49.448;8.612;2023-04-15T02:23:13;8.15;;;3.58;;
1106;SDS011;540;49.448;8.612;2023-04-15T02:25:41;8.45;;;4.72;;
1106;SDS011;540;49.448;8.612;2023-04-15T02:28:19;8.82;;;4.30;;
1106;SDS011;540;49.448;8.612;2023-04-15T02:30:47;14.25;;;4.80;;
1106;SDS011;540;49.448;8.612;2023-04-15T02:33:20;7.97;;;4.43;;
1106;SDS011;540;49.448;8.612;2023-04-15T02:35:48;9.10;;;4.10;;
1106;SDS011;540;49.448;8.612;2023-04-15T02:38:15;9.27;;;3.88;;
1106;SDS011;540;49.448;8.612;2023-04-15T02:40:43;10.75;;;4.90;;
1106;SDS011;540;49.448;8.612;2023-04-15T02:43:11;8.90;;;4.03;;
1106;SDS011;540;49.448;8.612;2023-04-15T02:45:39;4.55;;;3.05;;
1106;SDS011;540;49.448;8.612;2023-04-15T02:48:08;6.95;;;3.88;;
1106;SDS011;540;49.448;8.612;2023-04-15T02:50:37;7.90;;;3.60;;
1106;SDS011;540;49.448;8.612;2023-04-15T02:53:06;6.72;;;3.33;;
1106;SDS011;540;49.448;8.612;2023-04-15T02:55:33;6.13;;;3.42;;
1106;SDS011;540;49.448;8.612;2023-04-15T02:58:01;3.90;;;2.70;;
1106;SDS011;540;49.448;8.612;2023-04-15T03:00:29;7.60;;;3.10;;
1106;SDS011;540;49.448;8.612;2023-04-15T03:02:57;8.18;;;3.85;;
1106;SDS011;540;49.448;8.612;2023-04-15T03:05:30;7.22;;;3.40;;
1106;SDS011;540;49.448;8.612;2023-04-15T03:07:59;5.80;;;3.08;;
1106;SDS011;540;49.448;8.612;2023-04-15T03:10:28;6.63;;;3.17;;
1106;SDS011;540;49.448;8.612;2023-04-15T03:12:56;8.50;;;3.45;;
1106;SDS011;540;49.448;8.612;2023-04-15T03:15:23;12.32;;;3.90;;
1106;SDS011;540;49.448;8.612;2023-04-15T03:17:52;6.82;;;3.45;;
1106;SDS011;540;49.448;8.612;2023-04-15T03:20:20;7.80;;;4.25;;
1106;SDS011;540;49.448;8.612;2023-04-15T03:22:47;7.53;;;3.33;;
1106;SDS011;540;49.448;8.612;2023-04-15T03:25:17;5.60;;;3.25;;
1106;SDS011;540;49.448;8.612;2023-04-15T03:27:44;5.10;;;3.10;;
1106;SDS011;540;49.448;8.612;2023-04-15T03:30:12;5.45;;;3.35;;
1106;SDS011;540;49.448;8.612;2023-04-15T03:32:40;6.03;;;3.33;;
1106;SDS011;540;49.448;8.612;2023-04-15T03:35:08;9.55;;;3.63;;
1106;SDS011;540;49.448;8.612;2023-04-15T03:37:36;6.70;;;3.67;;
1106;SDS011;540;49.448;8.612;2023-04-15T03:40:04;7.93;;;3.63;;
1106;SDS011;540;49.448;8.612;2023-04-15T03:42:34;9.23;;;2.78;;
1106;SDS011;540;49.448;8.612;2023-04-15T03:45:02;4.15;;;2.83;;
1106;SDS011;540;49.448;8.612;2023-04-15T03:47:30;8.15;;;3.20;;
1106;SDS011;540;49.448;8.612;2023-04-15T03:49:58;6.55;;;3.30;;
1106;SDS011;540;49.448;8.612;2023-04-15T03:52:26;5.95;;;2.67;;
1106;SDS011;540;49.448;8.612;2023-04-15T03:54:53;6.50;;;2.63;;
1106;SDS011;540;49.448;8.612;2023-04-15T03:57:21;5.68;;;2.97;;
1106;SDS011;540;49.448;8.612;2023-04-15T03:59:50;5.82;;;2.47;;
1106;SDS011;540;49.448;8.612;2023-04-15T04:02:18;4.03;;;2.47;;
1106;SDS011;540;49.448;8.612;2023-04-15T04:04:46;5.38;;;2.17;;
1106;SDS011;540;49.448;8.612;2023-04-15T04:07:14;5.28;;;2.42;;
1106;SDS011;540;49.448;8.612;2023-04-15T04:09:42;3.72;;;2.50;;
1106;SDS011;540;49.448;8.612;2023-04-15T04:12:12;4.93;;;2.75;;
1106;SDS011;540;49.448;8.612;2023-04-15T04:14:40;5.53;;;2.78;;
1106;SDS011;540;49.448;8.612;2023-04-15T04:17:09;4.25;;;2.55;;
1106;SDS011;540;49.448;8.612;2023-04-15T04:19:37;4.53;;;2.40;;
1106;SDS011;540;49.448;8.612;2023-04-15T04:22:05;5.20;;;2.90;;
1106;SDS011;540;49.448;8.612;2023-04-15T04:24:33;4.25;;;2.58;;
1106;SDS011;540;49.448;8.612;2023-04-15T04:27:01;6.72;;;3.05;;
1106;SDS011;540;49.448;8.612;2023-04-15T04:29:28;4.25;;;2.50;;
1106;SDS011;540;49.448;8.612;2023-04-15T04:31:56;4.63;;;2.90;;
1106;SDS011;540;49.448;8.612;2023-04-15T04:34:25;7.85;;;2.78;;
1106;SDS011;540;49.448;8.612;2023-04-15T04:36:53;4.75;;;3.00;;
1106;SDS011;540;49.448;8.612;2023-04-15T04:39:21;4.45;;;2.85;;
1106;SDS011;540;49.448;8.612;2023-04-15T04:41:49;5.93;;;3.15;;
1106;SDS011;540;49.448;8.612;2023-04-15T04:44:17;6.38;;;2.95;;
1106;SDS011;540;49.448;8.612;2023-04-15T04:46:45;4.95;;;3.13;;
1106;SDS011;540;49.448;8.612;2023-04-15T04:49:13;3.90;;;3.05;;
1106;SDS011;540;49.448;8.612;2023-04-15T04:51:42;4.25;;;2.85;;
1106;SDS011;540;49.448;8.612;2023-04-15T04:54:10;5.68;;;3.25;;
1106;SDS011;540;49.448;8.612;2023-04-15T04:56:38;5.65;;;3.50;;
1106;SDS011;540;49.448;8.612;2023-04-15T04:59:06;4.38;;;2.95;;
1106;SDS011;540;49.448;8.612;2023-04-15T05:01:34;4.72;;;2.90;;
1106;SDS011;540;49.448;8.612;2023-04-15T05:04:02;5.75;;;3.35;;
1106;SDS011;540;49.448;8.612;2023-04-15T05:06:30;7.28;;;3.35;;
1106;SDS011;540;49.448;8.612;2023-04-15T05:08:59;5.88;;;3.38;;
1106;SDS011;540;49.448;8.612;2023-04-15T05:11:28;8.80;;;4.07;;
1106;SDS011;540;49.448;8.612;2023-04-15T05:13:56;6.03;;;3.33;;
1106;SDS011;540;49.448;8.612;2023-04-15T05:16:24;7.57;;;3.78;;
1106;SDS011;540;49.448;8.612;2023-04-15T05:18:52;8.27;;;4.10;;
1106;SDS011;540;49.448;8.612;2023-04-15T05:21:20;6.32;;;3.92;;
1106;SDS011;540;49.448;8.612;2023-04-15T05:23:48;7.78;;;3.58;;
1106;SDS011;540;49.448;8.612;2023-04-15T05:26:18;7.10;;;3.75;;
1106;SDS011;540;49.448;8.612;2023-04-15T05:28:46;8.93;;;3.90;;
1106;SDS011;540;49.448;8.612;2023-04-15T05:31:14;11.82;;;3.65;;
1106;SDS011;540;49.448;8.612;2023-04-15T05:33:42;7.32;;;3.50;;
1106;SDS011;540;49.448;8.612;2023-04-15T05:36:10;8.98;;;3.00;;
1106;SDS011;540;49.448;8.612;2023-04-15T05:38:38;7.43;;;3.75;;
1106;SDS011;540;49.448;8.612;2023-04-15T05:41:06;10.60;;;3.78;;
1106;SDS011;540;49.448;8.612;2023-04-15T05:43:36;8.10;;;3.40;;
1106;SDS011;540;49.448;8.612;2023-04-15T05:46:04;7.32;;;3.65;;
1106;SDS011;540;49.448;8.612;2023-04-15T05:48:31;6.43;;;3.55;;
1106;SDS011;540;49.448;8.612;2023-04-15T05:50:59;8.00;;;3.53;;
1106;SDS011;540;49.448;8.612;2023-04-15T05:53:27;7.80;;;3.60;;
1106;SDS011;540;49.448;8.612;2023-04-15T05:55:55;7.85;;;3.78;;
1106;SDS011;540;49.448;8.612;2023-04-15T05:58:23;6.10;;;4.07;;
1106;SDS011;540;49.448;8.612;2023-04-15T06:00:52;8.43;;;3.92;;
1106;SDS011;540;49.448;8.612;2023-04-15T06:03:20;6.13;;;3.95;;
1106;SDS011;540;49.448;8.612;2023-04-15T06:05:49;6.82;;;4.25;;
1106;SDS011;540;49.448;8.612;2023-04-15T06:08:17;8.57;;;4.40;;
1106;SDS011;540;49.448;8.612;2023-04-15T06:10:44;8.20;;;4.18;;
1106;SDS011;540;49.448;8.612;2023-04-15T06:13:12;8.52;;;3.90;;
1106;SDS011;540;49.448;8.612;2023-04-15T06:15:40;8.90;;;4.40;;
1106;SDS011;540;49.448;8.612;2023-04-15T06:18:09;5.95;;;3.47;;
1106;SDS011;540;49.448;8.612;2023-04-15T06:20:38;8.45;;;3.20;;
1106;SDS011;540;49.448;8.612;2023-04-15T06:23:06;5.60;;;3.75;;
1106;SDS011;540;49.448;8.612;2023-04-15T06:25:34;9.68;;;4.65;;
1106;SDS011;540;49.448;8.612;2023-04-15T06:28:02;11.48;;;4.50;;
1106;SDS011;540;49.448;8.612;2023-04-15T06:30:30;9.55;;;5.05;;
1106;SDS011;540;49.448;8.612;2023-04-15T06:32:58;5.95;;;3.55;;
1106;SDS011;540;49.448;8.612;2023-04-15T06:35:27;6.57;;;3.70;;
1106;SDS011;540;49.448;8.612;2023-04-15T06:37:55;8.82;;;4.00;;
1106;SDS011;540;49.448;8.612;2023-04-15T06:40:22;6.07;;;2.90;;
1106;SDS011;540;49.448;8.612;2023-04-15T06:42:50;4.85;;;3.17;;
1106;SDS011;540;49.448;8.612;2023-04-15T06:45:18;5.35;;;3.53;;
1106;SDS011;540;49.448;8.612;2023-04-15T06:47:46;5.07;;;3.40;;
1106;SDS011;540;49.448;8.612;2023-04-15T06:50:14;6.80;;;3.55;;
1106;SDS011;540;49.448;8.612;2023-04-15T06:52:43;6.65;;;3.42;;
1106;SDS011;540;49.448;8.612;2023-04-15T06:55:11;6.20;;;3.35;;
1106;SDS011;540;49.448;8.612;2023-04-15T06:57:39;8.82;;;5.30;;
1106;SDS011;540;49.448;8.612;2023-04-15T07:00:07;7.57;;;3.90;;
1106;SDS011;540;49.448;8.612;2023-04-15T07:02:37;4.70;;;2.78;;
1106;SDS011;540;49.448;8.612;2023-04-15T07:05:05;4.30;;;3.15;;
1106;SDS011;540;49.448;8.612;2023-04-15T07:07:33;4.78;;;2.67;;
1106;SDS011;540;49.448;8.612;2023-04-15T07:10:03;3.53;;;2.65;;
1106;SDS011;540;49.448;8.612;2023-04-15T07:12:32;4.40;;;2.70;;
1106;SDS011;540;49.448;8.612;2023-04-15T07:15:00;4.25;;;2.65;;
1106;SDS011;540;49.448;8.612;2023-04-15T07:17:28;5.90;;;2.60;;
1106;SDS011;540;49.448;8.612;2023-04-15T07:19:56;4.07;;;2.88;;
1106;SDS011;540;49.448;8.612;2023-04-15T07:22:24;5.72;;;3.28;;
1106;SDS011;540;49.448;8.612;2023-04-15T07:24:52;4.72;;;2.80;;
1106;SDS011;540;49.448;8.612;2023-04-15T07:27:21;3.78;;;3.08;;
1106;SDS011;540;49.448;8.612;2023-04-15T07:29:49;11.63;;;2.90;;
1106;SDS011;540;49.448;8.612;2023-04-15T07:32:17;6.03;;;2.50;;
1106;SDS011;540;49.448;8.612;2023-04-15T07:34:45;5.72;;;2.92;;
1106;SDS011;540;49.448;8.612;2023-04-15T07:37:13;6.85;;;2.85;;
1106;SDS011;540;49.448;8.612;2023-04-15T07:39:41;5.78;;;3.60;;
1106;SDS011;540;49.448;8.612;2023-04-15T07:42:09;4.38;;;3.35;;
1106;SDS011;540;49.448;8.612;2023-04-15T07:44:38;5.00;;;2.78;;
1106;SDS011;540;49.448;8.612;2023-04-15T07:47:06;4.57;;;3.17;;
1106;SDS011;540;49.448;8.612;2023-04-15T07:49:34;3.67;;;2.85;;
1106;SDS011;540;49.448;8.612;2023-04-15T07:52:01;5.40;;;3.20;;
1106;SDS011;540;49.448;8.612;2023-04-15T07:54:29;6.72;;;3.45;;
1106;SDS011;540;49.448;8.612;2023-04-15T07:56:57;5.85;;;3.58;;
1106;SDS011;540;49.448;8.612;2023-04-15T07:59:25;6.57;;;3.78;;
1106;SDS011;540;49.448;8.612;2023-04-15T08:01:56;6.45;;;3.70;;
1106;SDS011;540;49.448;8.612;2023-04-15T08:04:26;5.55;;;4.05;;
1106;SDS011;540;49.448;8.612;2023-04-15T08:06:57;7.40;;;4.00;;
1106;SDS011;540;49.448;8.612;2023-04-15T08:09:26;7.10;;;3.92;;
1106;SDS011;540;49.448;8.612;2023-04-15T08:11:56;7.13;;;3.95;;
1106;SDS011;540;49.448;8.612;2023-04-15T08:14:26;5.93;;;3.97;;
1106;SDS011;540;49.448;8.612;2023-04-15T08:16:58;4.72;;;3.38;;
1106;SDS011;540;49.448;8.612;2023-04-15T08:19:28;6.07;;;3.30;;
1106;SDS011;540;49.448;8.612;2023-04-15T08:21:58;5.38;;;2.92;;
1106;SDS011;540;49.448;8.612;2023-04-15T08:24:28;5.03;;;3.03;;
1106;SDS011;540;49.448;8.612;2023-04-15T08:26:59;6.53;;;3.65;;
1106;SDS011;540;49.448;8.612;2023-04-15T08:29:31;5.85;;;3.30;;
1106;SDS011;540;49.448;8.612;2023-04-15T08:32:02;4.38;;;3.08;;
1106;SDS011;540;49.448;8.612;2023-04-15T08:34:33;5.80;;;3.20;;
1106;SDS011;540;49.448;8.612;2023-04-15T08:37:02;6.25;;;3.30;;
1106;SDS011;540;49.448;8.612;2023-04-15T08:39:33;5.38;;;3.58;;
1106;SDS011;540;49.448;8.612;2023-04-15T08:42:02;4.80;;;3.08;;
1106;SDS011;540;49.448;8.612;2023-04-15T08:44:35;7.43;;;3.60;;
1106;SDS011;540;49.448;8.612;2023-04-15T08:47:06;6.43;;;3.83;;
1106;SDS011;540;49.448;8.612;2023-04-15T08:49:38;6.97;;;3.42;;
1106;SDS011;540;49.448;8.612;2023-04-15T08:52:08;5.20;;;3.40;;
1106;SDS011;540;49.448;8.612;2023-04-15T08:54:38;5.20;;;3.22;;
1106;SDS011;540;49.448;8.612;2023-04-15T08:57:07;5.85;;;3.35;;
1106;SDS011;540;49.448;8.612;2023-04-15T08:59:36;6.57;;;3.30;;
1106;SDS011;540;49.448;8.612;2023-04-15T09:02:06;8.68;;;4.53;;
1106;SDS011;540;49.448;8.612;2023-04-15T09:04:34;5.00;;;2.92;;
1106;SDS011;540;49.448;8.612;2023-04-15T09:07:02;9.55;;;5.60;;
1106;SDS011;540;49.448;8.612;2023-04-15T09:09:29;5.55;;;3.28;;
1106;SDS011;540;49.448;8.612;2023-04-15T09:11:57;7.18;;;3.25;;
1106;SDS011;540;49.448;8.612;2023-04-15T09:14:27;6.28;;;3.08;;
1106;SDS011;540;49.448;8.612;2023-04-15T09:16:58;7.28;;;2.90;;
1106;SDS011;540;49.448;8.612;2023-04-15T09:19:28;4.93;;;2.88;;
1106;SDS011;540;49.448;8.612;2023-04-15T09:21:58;5.55;;;3.08;;
1106;SDS011;540;49.448;8.612;2023-04-15T09:24:32;3.17;;;2.25;;
1106;SDS011;540;49.448;8.612;2023-04-15T09:27:03;4.85;;;2.78;;
1106;SDS011;540;49.448;8.612;2023-04-15T09:29:31;4.07;;;2.78;;
1106;SDS011;540;49.448;8.612;2023-04-15T09:32:08;3.13;;;2.20;;
1106;SDS011;540;49.448;8.612;2023-04-15T09:34:38;4.18;;;2.05;;
1106;SDS011;540;49.448;8.612;2023-04-15T09:37:06;5.30;;;2.67;;
1106;SDS011;540;49.448;8.612;2023-04-15T09:39:46;3.63;;;2.47;;
1106;SDS011;540;49.448;8.612;2023-04-15T09:42:15;4.57;;;2.40;;
1106;SDS011;540;49.448;8.612;2023-04-15T09:44:49;4.28;;;2.35;;
1106;SDS011;540;49.448;8.612;2023-04-15T09:47:25;3.95;;;2.55;;
1106;SDS011;540;49.448;8.612;2023-04-15T09:49:56;4.00;;;1.85;;
1106;SDS011;540;49.448;8.612;2023-04-15T09:52:24;6.55;;;2.55;;
1106;SDS011;540;49.448;8.612;2023-04-15T09:54:53;3.38;;;2.15;;
1106;SDS011;540;49.448;8.612;2023-04-15T09:57:22;4.75;;;2.50;;
1106;SDS011;540;49.448;8.612;2023-04-15T09:59:50;5.88;;;2.13;;
1106;SDS011;540;49.448;8.612;2023-04-15T10:02:18;5.18;;;2.58;;
1106;SDS011;540;49.448;8.612;2023-04-15T10:04:47;7.60;;;3.80;;
1106;SDS011;540;49.448;8.612;2023-04-15T10:07:16;5.53;;;2.90;;
1106;SDS011;540;49.448;8.612;2023-04-15T10:09:45;6.05;;;3.40;;
1106;SDS011;540;49.448;8.612;2023-04-15T10:12:15;6.10;;;3.40;;
1106;SDS011;540;49.448;8.612;2023-04-15T10:14:44;8.45;;;4.63;;
1106;SDS011;540;49.448;8.612;2023-04-15T10:17:14;4.57;;;3.25;;
1106;SDS011;540;49.448;8.612;2023-04-15T10:19:44;5.88;;;4.20;;
1106;SDS011;540;49.448;8.612;2023-04-15T10:22:13;6.95;;;3.90;;
1106;SDS011;540;49.448;8.612;2023-04-15T10:24:42;5.20;;;3.97;;
1106;SDS011;540;49.448;8.612;2023-04-15T10:27:12;7.55;;;3.75;;
1106;SDS011;540;49.448;8.612;2023-04-15T10:29:41;7.70;;;3.63;;
1106;SDS011;540;49.448;8.612;2023-04-15T10:32:09;4.95;;;3.63;;
1106;SDS011;540;49.448;8.612;2023-04-15T10:34:37;5.78;;;3.67;;
1106;SDS011;540;49.448;8.612;2023-04-15T10:37:08;4.82;;;3.42;;
1106;SDS011;540;49.448;8.612;2023-04-15T10:39:37;4.93;;;3.17;;
1106;SDS011;540;49.448;8.612;2023-04-15T10:42:08;4.45;;;2.90;;
1106;SDS011;540;49.448;8.612;2023-04-15T10:44:37;3.83;;;2.20;;
1106;SDS011;540;49.448;8.612;2023-04-15T10:47:08;3.35;;;2.60;;
1106;SDS011;540;49.448;8.612;2023-04-15T10:49:44;4.18;;;2.85;;
1106;SDS011;540;49.448;8.612;2023-04-15T10:54:42;6.68;;;2.83;;
1106;SDS011;540;49.448;8.612;2023-04-15T10:57:15;6.03;;;2.83;;
1106;SDS011;540;49.448;8.612;2023-04-15T11:02:45;2.58;;;2.08;;
1106;SDS011;540;49.448;8.612;2023-04-15T11:05:14;5.18;;;2.60;;
1106;SDS011;540;49.448;8.612;2023-04-15T11:07:47;5.80;;;3.75;;
1106;SDS011;540;49.448;8.612;2023-04-15T11:13:23;4.32;;;1.60;;
1106;SDS011;540;49.448;8.612;2023-04-15T11:15:54;5.32;;;1.20;;
1106;SDS011;540;49.448;8.612;2023-04-15T11:18:28;3.45;;;1.50;;
1106;SDS011;540;49.448;8.612;2023-04-15T11:20:58;3.63;;;1.50;;
1106;SDS011;540;49.448;8.612;2023-04-15T11:23:31;2.13;;;1.42;;
1106;SDS011;540;49.448;8.612;2023-04-15T11:26:01;3.33;;;1.33;;
1106;SDS011;540;49.448;8.612;2023-04-15T11:28:35;2.15;;;1.50;;
1106;SDS011;540;49.448;8.612;2023-04-15T11:31:05;4.10;;;1.65;;
1106;SDS011;540;49.448;8.612;2023-04-15T11:33:36;10.35;;;2.30;;
1106;SDS011;540;49.448;8.612;2023-04-15T11:36:04;3.28;;;1.52;;
1106;SDS011;540;49.448;8.612;2023-04-15T11:38:33;1.00;;;0.85;;
1106;SDS011;540;49.448;8.612;2023-04-15T11:41:01;4.53;;;1.25;;
1106;SDS011;540;49.448;8.612;2023-04-15T11:43:30;3.60;;;1.10;;
1106;SDS011;540;49.448;8.612;2023-04-15T11:46:02;2.58;;;1.33;;
1106;SDS011;540;49.448;8.612;2023-04-15T11:48:31;7.32;;;3.50;;
1106;SDS011;540;49.448;8.612;2023-04-15T11:50:59;5.93;;;2.65;;
1106;SDS011;540;49.448;8.612;2023-04-15T11:53:35;3.30;;;1.30;;
1106;SDS011;540;49.448;8.612;2023-04-15T11:58:33;4.25;;;1.35;;
1106;SDS011;540;49.448;8.612;2023-04-15T12:01:04;1.98;;;1.33;;
1106;SDS011;540;49.448;8.612;2023-04-15T12:03:35;2.78;;;1.20;;
1106;SDS011;540;49.448;8.612;2023-04-15T12:06:05;3.65;;;1.20;;
1106;SDS011;540;49.448;8.612;2023-04-15T12:08:47;1.77;;;1.20;;
1106;SDS011;540;49.448;8.612;2023-04-15T12:11:26;1.55;;;1.25;;
1106;SDS011;540;49.448;8.612;2023-04-15T12:14:01;4.28;;;1.17;;
1106;SDS011;540;49.448;8.612;2023-04-15T12:16:32;2.55;;;1.38;;
1106;SDS011;540;49.448;8.612;2023-04-15T12:19:14;4.32;;;1.42;;
1106;SDS011;540;49.448;8.612;2023-04-15T12:21:44;2.28;;;1.25;;
1106;SDS011;540;49.448;8.612;2023-04-15T12:24:14;3.75;;;1.23;;
1106;SDS011;540;49.448;8.612;2023-04-15T12:26:42;3.95;;;1.40;;
1106;SDS011;540;49.448;8.612;2023-04-15T12:29:12;3.45;;;1.15;;
1106;SDS011;540;49.448;8.612;2023-04-15T12:31:49;4.43;;;1.73;;
1106;SDS011;540;49.448;8.612;2023-04-15T12:34:24;4.07;;;2.10;;
1106;SDS011;540;49.448;8.612;2023-04-15T12:36:54;2.72;;;1.52;;
1106;SDS011;540;49.448;8.612;2023-04-15T12:39:23;6.18;;;2.70;;
1106;SDS011;540;49.448;8.612;2023-04-15T12:41:55;2.35;;;1.40;;
1106;SDS011;540;49.448;8.612;2023-04-15T12:44:22;2.63;;;1.40;;
1106;SDS011;540;49.448;8.612;2023-04-15T12:46:52;3.45;;;1.80;;
1106;SDS011;540;49.448;8.612;2023-04-15T12:49:20;6.20;;;2.05;;
1106;SDS011;540;49.448;8.612;2023-04-15T12:51:48;6.45;;;2.45;;
1106;SDS011;540;49.448;8.612;2023-04-15T12:54:18;10.82;;;4.03;;
1106;SDS011;540;49.448;8.612;2023-04-15T12:56:46;4.35;;;1.73;;
1106;SDS011;540;49.448;8.612;2023-04-15T12:59:16;4.72;;;2.00;;
1106;SDS011;540;49.448;8.612;2023-04-15T13:01:44;1.75;;;1.50;;
1106;SDS011;540;49.448;8.612;2023-04-15T13:04:14;2.90;;;1.27;;
1106;SDS011;540;49.448;8.612;2023-04-15T13:06:42;2.67;;;1.45;;
1106;SDS011;540;49.448;8.612;2023-04-15T13:09:10;6.57;;;1.30;;
1106;SDS011;540;49.448;8.612;2023-04-15T13:11:38;3.03;;;1.38;;
1106;SDS011;540;49.448;8.612;2023-04-15T13:14:07;2.50;;;1.05;;
1106;SDS011;540;49.448;8.612;2023-04-15T13:16:36;2.92;;;1.00;;
1106;SDS011;540;49.448;8.612;2023-04-15T13:19:04;1.40;;;0.80;;
1106;SDS011;540;49.448;8.612;2023-04-15T13:21:34;2.08;;;1.27;;
1106;SDS011;540;49.448;8.612;2023-04-15T13:24:02;5.18;;;1.30;;
1106;SDS011;540;49.448;8.612;2023-04-15T13:26:32;2.63;;;1.20;;
1106;SDS011;540;49.448;8.612;2023-04-15T13:29:00;1.70;;;1.00;;
1106;SDS011;540;49.448;8.612;2023-04-15T13:31:28;2.38;;;1.08;;
1106;SDS011;540;49.448;8.612;2023-04-15T13:33:56;3.75;;;1.15;;
1106;SDS011;540;49.448;8.612;2023-04-15T13:36:24;3.03;;;1.08;;
1106;SDS011;540;49.448;8.612;2023-04-15T13:38:53;2.55;;;1.08;;
1106;SDS011;540;49.448;8.612;2023-04-15T13:41:22;1.88;;;1.00;;
1106;SDS011;540;49.448;8.612;2023-04-15T13:43:49;4.03;;;2.40;;
1106;SDS011;540;49.448;8.612;2023-04-15T13:46:18;5.80;;;2.75;;
1106;SDS011;540;49.448;8.612;2023-04-15T13:48:46;1.65;;;0.90;;
1106;SDS011;540;49.448;8.612;2023-04-15T13:51:14;3.70;;;1.08;;
1106;SDS011;540;49.448;8.612;2023-04-15T13:53:42;2.80;;;0.70;;
1106;SDS011;540;49.448;8.612;2023-04-15T13:56:11;1.00;;;0.85;;
1106;SDS011;540;49.448;8.612;2023-04-15T13:58:38;2.92;;;1.00;;
1106;SDS011;540;49.448;8.612;2023-04-15T14:01:07;2.97;;;0.60;;
1106;SDS011;540;49.448;8.612;2023-04-15T14:03:34;1.50;;;0.73;;
1106;SDS011;540;49.448;8.612;2023-04-15T14:06:03;1.70;;;0.70;;
1106;SDS011;540;49.448;8.612;2023-04-15T14:08:31;1.95;;;0.60;;
1106;SDS011;540;49.448;8.612;2023-04-15T14:10:59;2.35;;;0.60;;
1106;SDS011;540;49.448;8.612;2023-04-15T14:13:28;1.08;;;0.50;;
1106;SDS011;540;49.448;8.612;2023-04-15T14:15:56;1.88;;;1.02;;
1106;SDS011;540;49.448;8.612;2023-04-15T14:18:24;2.85;;;1.30;;
1106;SDS011;540;49.448;8.612;2023-04-15T14:20:52;6.13;;;2.10;;
1106;SDS011;540;49.448;8.612;2023-04-15T14:23:20;5.88;;;1.40;;
1106;SDS011;540;49.448;8.612;2023-04-15T14:25:47;5.93;;;2.63;;
1106;SDS011;540;49.448;8.612;2023-04-15T14:28:16;4.68;;;2.17;;
1106;SDS011;540;49.448;8.612;2023-04-15T14:30:45;2.00;;;1.13;;
1106;SDS011;540;49.448;8.612;2023-04-15T14:33:13;2.40;;;1.30;;
1106;SDS011;540;49.448;8.612;2023-04-15T14:35:41;2.20;;;1.35;;
1106;SDS011;540;49.448;8.612;2023-04-15T14:38:09;2.65;;;1.30;;
1106;SDS011;540;49.448;8.612;2023-04-15T14:40:36;3.03;;;1.55;;
1106;SDS011;540;49.448;8.612;2023-04-15T14:43:04;2.75;;;1.67;;
1106;SDS011;540;49.448;8.612;2023-04-15T14:45:33;1.77;;;1.48;;
1106;SDS011;540;49.448;8.612;2023-04-15T14:48:03;1.85;;;1.30;;
1106;SDS011;540;49.448;8.612;2023-04-15T14:50:31;2.35;;;1.40;;
1106;SDS011;540;49.448;8.612;2023-04-15T14:52:59;1.50;;;1.27;;
1106;SDS011;540;49.448;8.612;2023-04-15T14:55:27;1.40;;;1.05;;
1106;SDS011;540;49.448;8.612;2023-04-15T14:57:55;2.03;;;0.95;;
1106;SDS011;540;49.448;8.612;2023-04-15T15:00:22;1.58;;;1.05;;
1106;SDS011;540;49.448;8.612;2023-04-15T15:02:50;1.65;;;1.13;;
1106;SDS011;540;49.448;8.612;2023-04-15T15:05:19;1.40;;;1.00;;
1106;SDS011;540;49.448;8.612;2023-04-15T15:07:48;1.35;;;1.10;;
1106;SDS011;540;49.448;8.612;2023-04-15T15:10:15;3.72;;;1.15;;
1106;SDS011;540;49.448;8.612;2023-04-15T15:13:04;1.38;;;1.17;;
1106;SDS011;540;49.448;8.612;2023-04-15T15:15:32;1.67;;;1.20;;
1106;SDS011;540;49.448;8.612;2023-04-15T15:18:01;2.25;;;1.35;;
1106;SDS011;540;49.448;8.612;2023-04-15T15:20:30;0.75;;;0.75;;
1106;SDS011;540;49.448;8.612;2023-04-15T15:22:59;1.52;;;1.10;;
1106;SDS011;540;49.448;8.612;2023-04-15T15:25:27;4.82;;;1.13;;
1106;SDS011;540;49.448;8.612;2023-04-15T15:27:56;2.78;;;1.35;;
1106;SDS011;540;49.448;8.612;2023-04-15T15:30:23;1.08;;;0.90;;
1106;SDS011;540;49.448;8.612;2023-04-15T15:32:51;2.28;;;1.15;;
1106;SDS011;540;49.448;8.612;2023-04-15T15:35:19;2.50;;;1.20;;
1106;SDS011;540;49.448;8.612;2023-04-15T15:37:50;2.10;;;1.27;;
1106;SDS011;540;49.448;8.612;2023-04-15T15:40:18;0.90;;;0.70;;
1106;SDS011;540;49.448;8.612;2023-04-15T15:42:46;1.77;;;1.17;;
1106;SDS011;540;49.448;8.612;2023-04-15T15:45:16;2.42;;;1.13;;
1106;SDS011;540;49.448;8.612;2023-04-15T15:47:43;2.08;;;1.30;;
1106;SDS011;540;49.448;8.612;2023-04-15T15:50:11;1.52;;;1.20;;
1106;SDS011;540;49.448;8.612;2023-04-15T15:52:40;5.72;;;1.60;;